createdAt,value
2017-02-14T00:00:45.927Z,0
2017-02-14T00:01:45.901Z,0
2017-02-14T00:02:45.879Z,0
2017-02-14T00:03:45.868Z,0
2017-02-14T00:04:45.443Z,0
2017-02-14T00:05:45.517Z,0
2017-02-14T00:06:45.366Z,0
2017-02-14T00:07:45.742Z,0
2017-02-14T00:08:45.351Z,0
2017-02-14T00:09:45.679Z,0
2017-02-14T00:10:45.335Z,0
2017-02-14T00:11:45.628Z,0
2017-02-14T00:12:45.609Z,0
2017-02-14T00:13:45.576Z,0
2017-02-14T00:14:45.146Z,0
2017-02-14T00:15:45.643Z,0
2017-02-14T00:16:45.111Z,0
2017-02-14T00:17:45.079Z,0
2017-02-14T00:18:45.463Z,0
2017-02-14T00:19:45.455Z,0
2017-02-14T00:20:45.036Z,0
2017-02-14T00:21:45.357Z,0
2017-02-14T00:22:45.353Z,0
2017-02-14T00:23:44.915Z,0
2017-02-14T00:24:44.886Z,0
2017-02-14T00:25:44.845Z,0
2017-02-14T00:26:44.820Z,0
2017-02-14T00:27:44.794Z,0
2017-02-14T00:28:45.170Z,0
2017-02-14T00:29:45.203Z,0
2017-02-14T00:30:45.081Z,0
2017-02-14T00:31:45.004Z,0
2017-02-14T00:32:44.273Z,0
2017-02-14T00:33:44.992Z,0
2017-02-14T00:34:44.994Z,0
2017-02-14T00:35:44.586Z,0
2017-02-14T00:36:45.199Z,0
2017-02-14T00:37:44.929Z,0
2017-02-14T00:38:44.480Z,0
2017-02-14T00:39:44.456Z,0
2017-02-14T00:40:44.820Z,0
2017-02-14T00:41:44.407Z,0
2017-02-14T00:42:44.780Z,0
2017-02-14T00:43:44.042Z,0
2017-02-14T00:44:44.763Z,0
2017-02-14T00:45:44.681Z,0
2017-02-14T00:46:44.681Z,0
2017-02-14T00:47:44.259Z,0
2017-02-14T00:48:44.592Z,0
2017-02-14T00:49:44.560Z,0
2017-02-14T00:50:44.580Z,0
2017-02-14T00:51:44.639Z,0
2017-02-14T00:52:44.485Z,0
2017-02-14T00:53:44.072Z,0
2017-02-14T00:54:43.688Z,0
2017-02-14T00:55:44.409Z,0
2017-02-14T00:56:44.032Z,0
2017-02-14T00:57:44.354Z,0
2017-02-14T00:58:44.007Z,0
2017-02-14T00:59:43.541Z,0
2017-02-14T01:00:44.268Z,0
2017-02-14T01:01:44.247Z,0
2017-02-14T01:02:43.849Z,0
2017-02-14T01:03:44.177Z,0
2017-02-14T01:04:44.187Z,0
2017-02-14T01:05:43.385Z,0
2017-02-14T01:06:43.741Z,0
2017-02-14T01:07:44.062Z,0
2017-02-14T01:08:44.052Z,0
2017-02-14T01:09:43.284Z,0
2017-02-14T01:10:44.014Z,0
2017-02-14T01:11:44.019Z,0
2017-02-14T01:12:43.568Z,0
2017-02-14T01:13:43.898Z,0
2017-02-14T01:14:43.500Z,0
2017-02-14T01:15:43.104Z,0
2017-02-14T01:16:42.733Z,0
2017-02-14T01:17:43.792Z,0
2017-02-14T01:18:43.445Z,0
2017-02-14T01:19:43.401Z,0
2017-02-14T01:20:43.718Z,0
2017-02-14T01:21:43.702Z,0
2017-02-14T01:22:42.904Z,0
2017-02-14T01:23:43.275Z,0
2017-02-14T01:24:43.645Z,0
2017-02-14T01:25:43.620Z,0
2017-02-14T01:26:43.540Z,0
2017-02-14T01:27:43.157Z,0
2017-02-14T01:28:43.540Z,0
2017-02-14T01:29:43.095Z,0
2017-02-14T01:30:43.150Z,0
2017-02-14T01:31:43.025Z,0
2017-02-14T01:32:43.434Z,0
2017-02-14T01:33:42.983Z,0
2017-02-14T01:34:43.325Z,0
2017-02-14T01:35:43.299Z,0
2017-02-14T01:36:43.282Z,0
2017-02-14T01:37:43.239Z,0
2017-02-14T01:38:43.225Z,0
2017-02-14T01:39:43.216Z,0
2017-02-14T01:40:43.174Z,0
2017-02-14T01:41:42.798Z,0
2017-02-14T01:42:43.147Z,0
2017-02-14T01:43:42.694Z,0
2017-02-14T01:44:43.055Z,0
2017-02-14T01:45:41.865Z,0
2017-02-14T01:46:42.620Z,0
2017-02-14T01:47:42.951Z,0
2017-02-14T01:48:42.938Z,0
2017-02-14T01:49:42.516Z,0
2017-02-14T01:50:42.569Z,0
2017-02-14T01:51:42.904Z,0
2017-02-14T01:52:42.873Z,0
2017-02-14T01:53:42.409Z,0
2017-02-14T01:54:42.765Z,0
2017-02-14T01:55:42.805Z,0
2017-02-14T01:56:42.713Z,0
2017-02-14T01:57:42.694Z,0
2017-02-14T01:58:42.703Z,0
2017-02-14T01:59:42.630Z,0
2017-02-14T02:00:42.607Z,0
2017-02-14T02:01:42.622Z,0
2017-02-14T02:02:42.573Z,0
2017-02-14T02:03:42.549Z,0
2017-02-14T02:04:41.776Z,0
2017-02-14T02:05:41.313Z,0
2017-02-14T02:06:42.438Z,0
2017-02-14T02:07:41.638Z,0
2017-02-14T02:08:42.367Z,0
2017-02-14T02:09:42.350Z,0
2017-02-14T02:10:42.324Z,0
2017-02-14T02:11:41.917Z,0
2017-02-14T02:12:41.874Z,0
2017-02-14T02:13:42.246Z,0
2017-02-14T02:14:42.258Z,0
2017-02-14T02:15:42.192Z,0
2017-02-14T02:16:42.169Z,0
2017-02-14T02:17:42.139Z,0
2017-02-14T02:18:42.147Z,0
2017-02-14T02:19:42.105Z,0
2017-02-14T02:20:41.296Z,0
2017-02-14T02:21:41.641Z,0
2017-02-14T02:22:41.291Z,0
2017-02-14T02:23:41.191Z,0
2017-02-14T02:24:41.557Z,0
2017-02-14T02:25:41.530Z,0
2017-02-14T02:26:41.516Z,0
2017-02-14T02:27:41.890Z,0
2017-02-14T02:28:41.454Z,0
2017-02-14T02:29:41.860Z,0
2017-02-14T02:30:41.766Z,0
2017-02-14T02:31:42.052Z,0
2017-02-14T02:32:41.375Z,0
2017-02-14T02:33:41.709Z,0
2017-02-14T02:34:41.666Z,0
2017-02-14T02:35:41.632Z,0
2017-02-14T02:36:40.451Z,0
2017-02-14T02:37:41.198Z,0
2017-02-14T02:38:40.799Z,0
2017-02-14T02:39:41.519Z,0
2017-02-14T02:40:41.497Z,0
2017-02-14T02:41:41.471Z,0
2017-02-14T02:42:41.062Z,0
2017-02-14T02:43:41.069Z,0
2017-02-14T02:44:41.003Z,0
2017-02-14T02:45:41.020Z,0
2017-02-14T02:46:41.397Z,0
2017-02-14T02:47:40.914Z,0
2017-02-14T02:48:40.925Z,0
2017-02-14T02:49:41.259Z,0
2017-02-14T02:50:41.071Z,0
2017-02-14T02:51:41.246Z,0
2017-02-14T02:52:40.822Z,0
2017-02-14T02:53:40.380Z,0
2017-02-14T02:54:40.753Z,0
2017-02-14T02:55:41.075Z,0
2017-02-14T02:56:41.124Z,0
2017-02-14T02:57:41.012Z,0
2017-02-14T02:58:40.682Z,0
2017-02-14T02:59:40.587Z,0
2017-02-14T03:00:40.549Z,0
2017-02-14T03:01:40.514Z,0
2017-02-14T03:02:40.875Z,0
2017-02-14T03:03:40.471Z,0
2017-02-14T03:04:40.833Z,0
2017-02-14T03:05:40.423Z,0
2017-02-14T03:06:40.393Z,0
2017-02-14T03:07:39.983Z,0
2017-02-14T03:08:40.719Z,0
2017-02-14T03:09:40.310Z,0
2017-02-14T03:10:40.319Z,0
2017-02-14T03:11:39.913Z,0
2017-02-14T03:12:40.593Z,0
2017-02-14T03:13:40.612Z,0
2017-02-14T03:14:39.770Z,0
2017-02-14T03:15:40.144Z,0
2017-02-14T03:16:40.134Z,0
2017-02-14T03:17:40.089Z,0
2017-02-14T03:18:40.451Z,0
2017-02-14T03:19:40.398Z,0
2017-02-14T03:20:39.986Z,0
2017-02-14T03:21:40.419Z,0
2017-02-14T03:22:40.328Z,0
2017-02-14T03:23:40.305Z,0
2017-02-14T03:24:39.489Z,0
2017-02-14T03:25:40.245Z,0
2017-02-14T03:26:40.220Z,0
2017-02-14T03:27:40.259Z,0
2017-02-14T03:28:39.788Z,0
2017-02-14T03:29:39.757Z,0
2017-02-14T03:30:40.119Z,0
2017-02-14T03:31:40.092Z,0
2017-02-14T03:32:40.096Z,0
2017-02-14T03:33:39.637Z,0
2017-02-14T03:34:39.875Z,0
2017-02-14T03:35:39.964Z,0
2017-02-14T03:36:39.934Z,0
2017-02-14T03:37:39.904Z,0
2017-02-14T03:38:39.544Z,0
2017-02-14T03:39:39.100Z,0
2017-02-14T03:40:39.849Z,0
2017-02-14T03:41:39.038Z,0
2017-02-14T03:42:39.390Z,0
2017-02-14T03:43:39.387Z,0
2017-02-14T03:44:39.709Z,0
2017-02-14T03:45:39.686Z,0
2017-02-14T03:46:39.660Z,0
2017-02-14T03:47:39.657Z,0
2017-02-14T03:48:39.213Z,0
2017-02-14T03:49:39.686Z,0
2017-02-14T03:50:39.170Z,0
2017-02-14T03:51:39.535Z,0
2017-02-14T03:52:38.734Z,0
2017-02-14T03:53:39.485Z,0
2017-02-14T03:54:39.490Z,0
2017-02-14T03:55:39.404Z,0
2017-02-14T03:56:39.409Z,0
2017-02-14T03:57:39.364Z,0
2017-02-14T03:58:38.961Z,0
2017-02-14T03:59:39.298Z,0
2017-02-14T04:00:38.891Z,0
2017-02-14T04:01:38.912Z,0
2017-02-14T04:02:39.215Z,0
2017-02-14T04:03:38.808Z,0
2017-02-14T04:04:39.189Z,0
2017-02-14T04:05:38.366Z,0
2017-02-14T04:06:39.096Z,0
2017-02-14T04:07:38.336Z,0
2017-02-14T04:08:38.679Z,0
2017-02-14T04:09:38.663Z,0
2017-02-14T04:10:38.986Z,0
2017-02-14T04:11:39.032Z,0
2017-02-14T04:12:37.797Z,0
2017-02-14T04:13:38.912Z,0
2017-02-14T04:14:38.502Z,0
2017-02-14T04:15:38.893Z,0
2017-02-14T04:16:38.457Z,0
2017-02-14T04:17:38.441Z,0
2017-02-14T04:18:37.994Z,0
2017-02-14T04:19:38.744Z,0
2017-02-14T04:20:38.722Z,0
2017-02-14T04:21:38.761Z,0
2017-02-14T04:22:38.281Z,0
2017-02-14T04:23:38.263Z,0
2017-02-14T04:24:38.599Z,0
2017-02-14T04:25:38.205Z,0
2017-02-14T04:26:38.151Z,0
2017-02-14T04:27:38.149Z,0
2017-02-14T04:28:38.502Z,0
2017-02-14T04:29:38.076Z,0
2017-02-14T04:30:38.460Z,0
2017-02-14T04:31:38.144Z,0
2017-02-14T04:32:38.382Z,0
2017-02-14T04:33:37.976Z,0
2017-02-14T04:34:37.949Z,0
2017-02-14T04:35:37.929Z,0
2017-02-14T04:36:37.907Z,0
2017-02-14T04:37:38.256Z,0
2017-02-14T04:38:38.210Z,0
2017-02-14T04:39:38.202Z,0
2017-02-14T04:40:37.804Z,0
2017-02-14T04:41:37.749Z,0
2017-02-14T04:42:37.721Z,0
2017-02-14T04:43:38.144Z,0
2017-02-14T04:44:38.040Z,0
2017-02-14T04:45:38.041Z,0
2017-02-14T04:46:37.993Z,0
2017-02-14T04:47:37.582Z,0
2017-02-14T04:48:38.006Z,0
2017-02-14T04:49:37.910Z,0
2017-02-14T04:50:37.556Z,0
2017-02-14T04:51:38.159Z,0
2017-02-14T04:52:37.462Z,0
2017-02-14T04:53:37.432Z,0
2017-02-14T04:54:37.807Z,0
2017-02-14T04:55:37.751Z,0
2017-02-14T04:56:37.335Z,0
2017-02-14T04:57:37.305Z,0
2017-02-14T04:58:37.675Z,0
2017-02-14T04:59:37.309Z,0
2017-02-14T05:00:37.276Z,0
2017-02-14T05:01:36.814Z,0
2017-02-14T05:02:37.595Z,0
2017-02-14T05:03:37.522Z,0
2017-02-14T05:04:37.503Z,0
2017-02-14T05:05:36.687Z,0
2017-02-14T05:06:37.441Z,0
2017-02-14T05:07:37.418Z,0
2017-02-14T05:08:37.377Z,0
2017-02-14T05:09:36.995Z,0
2017-02-14T05:10:37.318Z,0
2017-02-14T05:11:36.913Z,0
2017-02-14T05:12:36.892Z,0
2017-02-14T05:13:37.291Z,0
2017-02-14T05:14:36.836Z,0
2017-02-14T05:15:36.416Z,0
2017-02-14T05:16:37.162Z,0
2017-02-14T05:17:36.741Z,0
2017-02-14T05:18:37.128Z,0
2017-02-14T05:19:37.061Z,0
2017-02-14T05:20:37.053Z,0
2017-02-14T05:21:37.019Z,0
2017-02-14T05:22:36.985Z,0
2017-02-14T05:23:37.024Z,0
2017-02-14T05:24:36.587Z,0
2017-02-14T05:25:36.529Z,0
2017-02-14T05:26:36.508Z,0
2017-02-14T05:27:36.476Z,0
2017-02-14T05:28:36.437Z,0
2017-02-14T05:29:36.801Z,0
2017-02-14T05:30:36.854Z,0
2017-02-14T05:31:36.743Z,0
2017-02-14T05:32:36.719Z,0
2017-02-14T05:33:36.362Z,0
2017-02-14T05:34:36.916Z,0
2017-02-14T05:35:35.907Z,0
2017-02-14T05:36:36.606Z,0
2017-02-14T05:37:36.791Z,0
2017-02-14T05:38:36.157Z,0
2017-02-14T05:39:36.528Z,0
2017-02-14T05:40:36.152Z,0
2017-02-14T05:41:36.514Z,0
2017-02-14T05:42:36.421Z,0
2017-02-14T05:43:36.026Z,0
2017-02-14T05:44:35.603Z,0
2017-02-14T05:45:36.372Z,0
2017-02-14T05:46:35.939Z,0
2017-02-14T05:47:36.299Z,0
2017-02-14T05:48:36.286Z,0
2017-02-14T05:49:36.236Z,0
2017-02-14T05:50:35.842Z,0
2017-02-14T05:51:35.712Z,0
2017-02-14T05:52:36.170Z,0
2017-02-14T05:53:36.106Z,0
2017-02-14T05:54:36.098Z,0
2017-02-14T05:55:36.061Z,0
2017-02-14T05:56:35.738Z,0
2017-02-14T05:57:36.042Z,0
2017-02-14T05:58:34.884Z,0
2017-02-14T05:59:35.574Z,0
2017-02-14T06:00:35.954Z,0
2017-02-14T06:01:35.922Z,0
2017-02-14T06:02:35.503Z,0
2017-02-14T06:03:35.856Z,0
2017-02-14T06:04:35.477Z,0
2017-02-14T06:05:35.430Z,0
2017-02-14T06:06:35.761Z,0
2017-02-14T06:07:34.999Z,0
2017-02-14T06:08:35.715Z,0
2017-02-14T06:09:35.668Z,0
2017-02-14T06:10:35.256Z,0
2017-02-14T06:11:35.276Z,0
2017-02-14T06:12:35.261Z,0
2017-02-14T06:13:35.620Z,0
2017-02-14T06:14:35.196Z,0
2017-02-14T06:15:35.516Z,0
2017-02-14T06:16:35.176Z,0
2017-02-14T06:17:35.450Z,0
2017-02-14T06:18:35.423Z,0
2017-02-14T06:19:34.999Z,0
2017-02-14T06:20:35.017Z,0
2017-02-14T06:21:35.338Z,0
2017-02-14T06:22:35.334Z,0
2017-02-14T06:23:35.281Z,0
2017-02-14T06:24:34.878Z,0
2017-02-14T06:25:34.457Z,0
2017-02-14T06:26:35.215Z,0
2017-02-14T06:27:35.168Z,0
2017-02-14T06:28:35.188Z,0
2017-02-14T06:29:35.119Z,0
2017-02-14T06:30:34.313Z,0
2017-02-14T06:31:35.075Z,0
2017-02-14T06:32:34.649Z,0
2017-02-14T06:33:35.008Z,0
2017-02-14T06:34:34.970Z,0
2017-02-14T06:35:34.949Z,0
2017-02-14T06:36:34.913Z,0
2017-02-14T06:37:34.501Z,5
2017-02-14T06:38:34.865Z,5
2017-02-14T06:39:34.830Z,5
2017-02-14T06:40:34.876Z,5
2017-02-14T06:41:34.379Z,5
2017-02-14T06:42:34.358Z,5
2017-02-14T06:43:34.363Z,5
2017-02-14T06:44:33.992Z,10
2017-02-14T06:45:34.671Z,10
2017-02-14T06:46:34.691Z,10
2017-02-14T06:47:34.270Z,10
2017-02-14T06:48:34.621Z,10
2017-02-14T06:49:33.781Z,10
2017-02-14T06:50:34.141Z,15
2017-02-14T06:51:34.489Z,15
2017-02-14T06:52:34.472Z,15
2017-02-14T06:53:34.431Z,15
2017-02-14T06:54:34.025Z,20
2017-02-14T06:55:34.411Z,20
2017-02-14T06:56:34.441Z,20
2017-02-14T06:57:33.158Z,25
2017-02-14T06:58:34.281Z,25
2017-02-14T06:59:34.252Z,25
2017-02-14T07:00:33.906Z,25
2017-02-14T07:01:34.222Z,30
2017-02-14T07:02:34.165Z,30
2017-02-14T07:03:33.756Z,30
2017-02-14T07:04:33.782Z,35
2017-02-14T07:05:33.712Z,35
2017-02-14T07:06:33.682Z,35
2017-02-14T07:07:33.274Z,40
2017-02-14T07:08:33.636Z,40
2017-02-14T07:09:33.587Z,45
2017-02-14T07:10:33.956Z,45
2017-02-14T07:11:33.578Z,50
2017-02-14T07:12:33.893Z,50
2017-02-14T07:13:33.910Z,50
2017-02-14T07:14:33.810Z,55
2017-02-14T07:15:33.800Z,55
2017-02-14T07:16:33.398Z,55
2017-02-14T07:17:33.763Z,60
2017-02-14T07:18:33.350Z,65
2017-02-14T07:19:33.745Z,70
2017-02-14T07:20:33.730Z,75
2017-02-14T07:21:33.651Z,80
2017-02-14T07:22:33.240Z,85
2017-02-14T07:23:33.564Z,90
2017-02-14T07:24:33.225Z,100
2017-02-14T07:25:33.144Z,100
2017-02-14T07:26:33.569Z,110
2017-02-14T07:27:33.074Z,115
2017-02-14T07:28:33.512Z,120
2017-02-14T07:29:33.411Z,120
2017-02-14T07:30:33.000Z,125
2017-02-14T07:31:33.367Z,130
2017-02-14T07:32:33.519Z,135
2017-02-14T07:33:33.322Z,140
2017-02-14T07:34:33.277Z,140
2017-02-14T07:35:32.872Z,145
2017-02-14T07:36:32.468Z,150
2017-02-14T07:37:32.811Z,155
2017-02-14T07:38:32.790Z,155
2017-02-14T07:39:32.789Z,155
2017-02-14T07:40:32.761Z,160
2017-02-14T07:41:32.496Z,170
2017-02-14T07:42:33.086Z,170
2017-02-14T07:43:33.091Z,175
2017-02-14T07:44:32.659Z,175
2017-02-14T07:45:32.617Z,180
2017-02-14T07:46:32.588Z,185
2017-02-14T07:47:32.979Z,190
2017-02-14T07:48:32.555Z,190
2017-02-14T07:49:32.933Z,195
2017-02-14T07:50:32.896Z,200
2017-02-14T07:51:32.908Z,205
2017-02-14T07:52:32.845Z,210
2017-02-14T07:53:32.036Z,215
2017-02-14T07:54:32.454Z,220
2017-02-14T07:55:32.786Z,225
2017-02-14T07:56:32.366Z,225
2017-02-14T07:57:32.897Z,230
2017-02-14T07:58:32.324Z,235
2017-02-14T07:59:31.513Z,240
2017-02-14T08:00:32.311Z,240
2017-02-14T08:01:32.649Z,245
2017-02-14T08:02:32.611Z,250
2017-02-14T08:03:32.593Z,255
2017-02-14T08:04:32.599Z,260
2017-02-14T08:05:32.529Z,260
2017-02-14T08:06:32.156Z,265
2017-02-14T08:07:32.483Z,270
2017-02-14T08:08:32.116Z,275
2017-02-14T08:09:31.775Z,275
2017-02-14T08:10:31.652Z,280
2017-02-14T08:11:32.392Z,285
2017-02-14T08:12:32.004Z,295
2017-02-14T08:13:32.356Z,315
2017-02-14T08:14:32.389Z,295
2017-02-14T08:15:31.952Z,285
2017-02-14T08:16:32.330Z,285
2017-02-14T08:17:31.893Z,300
2017-02-14T08:18:32.252Z,300
2017-02-14T08:19:32.309Z,290
2017-02-14T08:20:31.822Z,285
2017-02-14T08:21:32.209Z,285
2017-02-14T08:22:31.410Z,290
2017-02-14T08:23:31.390Z,295
2017-02-14T08:24:31.766Z,300
2017-02-14T08:25:32.119Z,305
2017-02-14T08:26:32.081Z,310
2017-02-14T08:27:31.316Z,310
2017-02-14T08:28:32.039Z,315
2017-02-14T08:29:32.022Z,320
2017-02-14T08:30:31.985Z,325
2017-02-14T08:31:31.599Z,330
2017-02-14T08:32:31.969Z,330
2017-02-14T08:33:31.931Z,335
2017-02-14T08:34:31.172Z,340
2017-02-14T08:35:31.562Z,340
2017-02-14T08:36:31.505Z,340
2017-02-14T08:37:31.504Z,340
2017-02-14T08:38:31.508Z,340
2017-02-14T08:39:31.437Z,345
2017-02-14T08:40:31.413Z,345
2017-02-14T08:41:31.867Z,350
2017-02-14T08:42:31.008Z,350
2017-02-14T08:43:31.369Z,355
2017-02-14T08:44:31.679Z,350
2017-02-14T08:45:31.696Z,355
2017-02-14T08:46:31.286Z,360
2017-02-14T08:47:31.672Z,360
2017-02-14T08:48:31.703Z,360
2017-02-14T08:49:31.603Z,365
2017-02-14T08:50:30.838Z,370
2017-02-14T08:51:31.254Z,380
2017-02-14T08:52:31.576Z,380
2017-02-14T08:53:30.420Z,385
2017-02-14T08:54:31.483Z,390
2017-02-14T08:55:31.096Z,395
2017-02-14T08:56:31.086Z,410
2017-02-14T08:57:31.457Z,405
2017-02-14T08:58:31.127Z,405
2017-02-14T08:59:31.388Z,405
2017-02-14T09:00:31.006Z,405
2017-02-14T09:01:31.347Z,335
2017-02-14T09:02:30.947Z,215
2017-02-14T09:03:30.550Z,205
2017-02-14T09:04:30.924Z,200
2017-02-14T09:05:30.963Z,200
2017-02-14T09:06:30.901Z,200
2017-02-14T09:07:30.466Z,200
2017-02-14T09:08:31.216Z,200
2017-02-14T09:09:30.418Z,200
2017-02-14T09:10:30.787Z,200
2017-02-14T09:11:30.779Z,200
2017-02-14T09:12:31.148Z,200
2017-02-14T09:13:30.329Z,205
2017-02-14T09:14:31.083Z,200
2017-02-14T09:15:31.368Z,200
2017-02-14T09:16:31.027Z,200
2017-02-14T09:17:30.269Z,200
2017-02-14T09:18:30.986Z,200
2017-02-14T09:19:30.962Z,200
2017-02-14T09:20:30.935Z,200
2017-02-14T09:21:30.942Z,200
2017-02-14T09:22:30.136Z,225
2017-02-14T09:23:30.871Z,225
2017-02-14T09:24:30.876Z,200
2017-02-14T09:25:30.436Z,200
2017-02-14T09:26:30.436Z,200
2017-02-14T09:27:30.408Z,195
2017-02-14T09:28:30.801Z,190
2017-02-14T09:29:29.969Z,190
2017-02-14T09:30:30.310Z,190
2017-02-14T09:31:30.677Z,190
2017-02-14T09:32:30.668Z,195
2017-02-14T09:33:30.254Z,190
2017-02-14T09:34:30.245Z,190
2017-02-14T09:35:30.088Z,190
2017-02-14T09:36:30.586Z,185
2017-02-14T09:37:30.196Z,185
2017-02-14T09:38:30.165Z,180
2017-02-14T09:39:29.723Z,180
2017-02-14T09:40:30.127Z,185
2017-02-14T09:41:30.067Z,190
2017-02-14T09:42:30.025Z,200
2017-02-14T09:43:30.393Z,180
2017-02-14T09:44:30.370Z,175
2017-02-14T09:45:30.339Z,175
2017-02-14T09:46:29.976Z,175
2017-02-14T09:47:30.333Z,175
2017-02-14T09:48:30.277Z,175
2017-02-14T09:49:30.586Z,175
2017-02-14T09:50:30.232Z,175
2017-02-14T09:51:30.207Z,175
2017-02-14T09:52:30.199Z,175
2017-02-14T09:53:29.769Z,175
2017-02-14T09:54:29.739Z,175
2017-02-14T09:55:29.734Z,170
2017-02-14T09:56:29.326Z,170
2017-02-14T09:57:29.318Z,170
2017-02-14T09:58:29.678Z,170
2017-02-14T09:59:29.617Z,170
2017-02-14T10:00:29.610Z,170
2017-02-14T10:01:29.585Z,170
2017-02-14T10:02:29.926Z,170
2017-02-14T10:03:29.936Z,170
2017-02-14T10:04:29.518Z,170
2017-02-14T10:05:29.871Z,170
2017-02-14T10:06:29.846Z,170
2017-02-14T10:07:29.820Z,170
2017-02-14T10:08:29.511Z,170
2017-02-14T10:09:29.784Z,170
2017-02-14T10:10:29.370Z,170
2017-02-14T10:11:29.392Z,170
2017-02-14T10:12:29.324Z,170
2017-02-14T10:13:28.910Z,170
2017-02-14T10:14:29.310Z,170
2017-02-14T10:15:28.863Z,170
2017-02-14T10:16:29.720Z,170
2017-02-14T10:17:29.584Z,170
2017-02-14T10:18:29.767Z,170
2017-02-14T10:19:29.153Z,170
2017-02-14T10:20:29.495Z,170
2017-02-14T10:21:29.493Z,175
2017-02-14T10:22:29.480Z,165
2017-02-14T10:23:29.429Z,165
2017-02-14T10:24:29.049Z,165
2017-02-14T10:25:29.014Z,165
2017-02-14T10:26:29.364Z,165
2017-02-14T10:27:28.950Z,165
2017-02-14T10:28:29.314Z,165
2017-02-14T10:29:29.302Z,165
2017-02-14T10:30:28.944Z,165
2017-02-14T10:31:29.262Z,165
2017-02-14T10:32:28.855Z,165
2017-02-14T10:33:29.172Z,165
2017-02-14T10:34:29.197Z,160
2017-02-14T10:35:29.161Z,160
2017-02-14T10:36:29.181Z,165
2017-02-14T10:37:29.106Z,165
2017-02-14T10:38:28.693Z,160
2017-02-14T10:39:29.082Z,160
2017-02-14T10:40:28.642Z,160
2017-02-14T10:41:28.631Z,160
2017-02-14T10:42:28.974Z,160
2017-02-14T10:43:28.947Z,160
2017-02-14T10:44:28.625Z,160
2017-02-14T10:45:28.895Z,160
2017-02-14T10:46:28.506Z,160
2017-02-14T10:47:28.088Z,160
2017-02-14T10:48:28.496Z,160
2017-02-14T10:49:28.480Z,160
2017-02-14T10:50:28.474Z,160
2017-02-14T10:51:28.037Z,160
2017-02-14T10:52:29.066Z,160
2017-02-14T10:53:28.717Z,160
2017-02-14T10:54:27.999Z,160
2017-02-14T10:55:27.908Z,160
2017-02-14T10:56:28.637Z,160
2017-02-14T10:57:28.623Z,160
2017-02-14T10:58:28.206Z,155
2017-02-14T10:59:28.181Z,155
2017-02-14T11:00:28.169Z,155
2017-02-14T11:01:28.585Z,155
2017-02-14T11:02:28.496Z,155
2017-02-14T11:03:28.531Z,155
2017-02-14T11:04:28.518Z,155
2017-02-14T11:05:27.687Z,155
2017-02-14T11:06:28.441Z,155
2017-02-14T11:07:28.435Z,155
2017-02-14T11:08:27.979Z,155
2017-02-14T11:09:28.009Z,155
2017-02-14T11:10:27.938Z,155
2017-02-14T11:11:28.281Z,155
2017-02-14T11:12:27.879Z,155
2017-02-14T11:13:28.528Z,155
2017-02-14T11:14:28.189Z,155
2017-02-14T11:15:27.826Z,155
2017-02-14T11:16:28.174Z,155
2017-02-14T11:17:27.745Z,155
2017-02-14T11:18:27.742Z,155
2017-02-14T11:19:27.758Z,155
2017-02-14T11:20:28.124Z,155
2017-02-14T11:21:28.033Z,155
2017-02-14T11:22:27.640Z,155
2017-02-14T11:23:27.996Z,155
2017-02-14T11:24:27.583Z,155
2017-02-14T11:25:27.590Z,155
2017-02-14T11:26:27.530Z,155
2017-02-14T11:27:27.889Z,155
2017-02-14T11:28:27.501Z,155
2017-02-14T11:29:27.892Z,155
2017-02-14T11:30:27.845Z,155
2017-02-14T11:31:27.829Z,155
2017-02-14T11:32:27.802Z,155
2017-02-14T11:33:27.806Z,155
2017-02-14T11:34:27.346Z,155
2017-02-14T11:35:27.717Z,155
2017-02-14T11:36:27.301Z,155
2017-02-14T11:37:27.290Z,155
2017-02-14T11:38:27.657Z,150
2017-02-14T11:39:27.631Z,150
2017-02-14T11:40:27.601Z,150
2017-02-14T11:41:27.597Z,150
2017-02-14T11:42:27.536Z,150
2017-02-14T11:43:27.531Z,150
2017-02-14T11:44:27.487Z,150
2017-02-14T11:45:27.079Z,150
2017-02-14T11:46:27.115Z,150
2017-02-14T11:47:27.048Z,150
2017-02-14T11:48:26.652Z,150
2017-02-14T11:49:27.375Z,150
2017-02-14T11:50:27.361Z,150
2017-02-14T11:51:27.339Z,150
2017-02-14T11:52:26.927Z,150
2017-02-14T11:53:27.288Z,150
2017-02-14T11:54:26.890Z,150
2017-02-14T11:55:26.519Z,150
2017-02-14T11:56:27.338Z,150
2017-02-14T11:57:26.840Z,145
2017-02-14T11:58:26.398Z,145
2017-02-14T11:59:26.435Z,145
2017-02-14T12:00:26.741Z,145
2017-02-14T12:01:27.088Z,145
2017-02-14T12:02:27.061Z,145
2017-02-14T12:03:26.667Z,145
2017-02-14T12:04:27.073Z,145
2017-02-14T12:05:27.057Z,145
2017-02-14T12:06:26.648Z,145
2017-02-14T12:07:26.616Z,145
2017-02-14T12:08:26.925Z,145
2017-02-14T12:09:26.511Z,145
2017-02-14T12:10:26.898Z,145
2017-02-14T12:11:26.868Z,145
2017-02-14T12:12:26.893Z,145
2017-02-14T12:13:26.823Z,145
2017-02-14T12:14:26.783Z,145
2017-02-14T12:15:26.809Z,145
2017-02-14T12:16:26.807Z,145
2017-02-14T12:17:26.384Z,145
2017-02-14T12:18:26.741Z,145
2017-02-14T12:19:26.678Z,140
2017-02-14T12:20:26.256Z,140
2017-02-14T12:21:26.256Z,140
2017-02-14T12:22:26.600Z,140
2017-02-14T12:23:26.637Z,140
2017-02-14T12:24:26.553Z,140
2017-02-14T12:25:26.557Z,140
2017-02-14T12:26:26.537Z,140
2017-02-14T12:27:26.160Z,140
2017-02-14T12:28:26.461Z,140
2017-02-14T12:29:26.738Z,140
2017-02-14T12:30:26.435Z,140
2017-02-14T12:31:26.026Z,140
2017-02-14T12:32:25.986Z,140
2017-02-14T12:33:25.981Z,140
2017-02-14T12:34:25.956Z,135
2017-02-14T12:35:25.960Z,135
2017-02-14T12:36:25.891Z,135
2017-02-14T12:37:26.254Z,135
2017-02-14T12:38:25.845Z,135
2017-02-14T12:39:26.214Z,135
2017-02-14T12:40:26.283Z,135
2017-02-14T12:41:25.402Z,135
2017-02-14T12:42:26.243Z,135
2017-02-14T12:43:25.756Z,135
2017-02-14T12:44:25.713Z,135
2017-02-14T12:45:25.702Z,135
2017-02-14T12:46:26.068Z,135
2017-02-14T12:47:26.039Z,135
2017-02-14T12:48:25.606Z,135
2017-02-14T12:49:25.640Z,135
2017-02-14T12:50:25.567Z,135
2017-02-14T12:51:25.557Z,135
2017-02-14T12:52:25.900Z,135
2017-02-14T12:53:25.504Z,130
2017-02-14T12:54:25.907Z,130
2017-02-14T12:55:25.092Z,135
2017-02-14T12:56:25.447Z,130
2017-02-14T12:57:25.815Z,130
2017-02-14T12:58:25.422Z,130
2017-02-14T12:59:25.033Z,130
2017-02-14T13:00:25.721Z,130
2017-02-14T13:01:25.323Z,130
2017-02-14T13:02:25.322Z,130
2017-02-14T13:03:24.507Z,130
2017-02-14T13:04:25.679Z,130
2017-02-14T13:05:25.664Z,130
2017-02-14T13:06:25.250Z,130
2017-02-14T13:07:25.558Z,130
2017-02-14T13:08:25.152Z,130
2017-02-14T13:09:39.692Z,130
2017-02-14T13:10:25.489Z,130
2017-02-14T13:11:25.094Z,130
2017-02-14T13:12:24.753Z,130
2017-02-14T13:13:25.447Z,130
2017-02-14T13:14:25.427Z,125
2017-02-14T13:15:25.159Z,125
2017-02-14T13:16:24.615Z,125
2017-02-14T13:17:25.372Z,125
2017-02-14T13:18:25.342Z,125
2017-02-14T13:19:25.287Z,125
2017-02-14T13:20:25.283Z,125
2017-02-14T13:21:24.860Z,125
2017-02-14T13:22:24.936Z,125
2017-02-14T13:23:25.189Z,125
2017-02-14T13:24:25.184Z,125
2017-02-14T13:25:25.183Z,125
2017-02-14T13:26:24.749Z,125
2017-02-14T13:27:25.121Z,125
2017-02-14T13:28:24.699Z,125
2017-02-14T13:29:24.333Z,125
2017-02-14T13:30:25.036Z,125
2017-02-14T13:31:24.262Z,125
2017-02-14T13:32:25.004Z,125
2017-02-14T13:33:24.977Z,125
2017-02-14T13:34:24.935Z,120
2017-02-14T13:35:24.133Z,120
2017-02-14T13:36:24.920Z,120
2017-02-14T13:37:24.480Z,120
2017-02-14T13:38:24.486Z,120
2017-02-14T13:39:24.842Z,120
2017-02-14T13:40:24.421Z,120
2017-02-14T13:41:24.402Z,120
2017-02-14T13:42:24.436Z,120
2017-02-14T13:43:24.738Z,120
2017-02-14T13:44:24.367Z,120
2017-02-14T13:45:24.731Z,120
2017-02-14T13:46:24.317Z,120
2017-02-14T13:47:24.652Z,120
2017-02-14T13:48:24.624Z,120
2017-02-14T13:49:24.216Z,120
2017-02-14T13:50:24.251Z,120
2017-02-14T13:51:24.582Z,120
2017-02-14T13:52:24.170Z,120
2017-02-14T13:53:24.145Z,120
2017-02-14T13:54:24.111Z,120
2017-02-14T13:55:24.107Z,115
2017-02-14T13:56:25.150Z,115
2017-02-14T13:57:24.448Z,115
2017-02-14T13:58:24.401Z,115
2017-02-14T13:59:23.986Z,115
2017-02-14T14:00:24.348Z,115
2017-02-14T14:01:23.953Z,115
2017-02-14T14:02:24.299Z,115
2017-02-14T14:03:24.286Z,115
2017-02-14T14:04:23.876Z,115
2017-02-14T14:05:24.249Z,115
2017-02-14T14:06:23.833Z,115
2017-02-14T14:07:24.212Z,115
2017-02-14T14:08:23.803Z,115
2017-02-14T14:09:23.755Z,115
2017-02-14T14:10:22.959Z,115
2017-02-14T14:11:24.383Z,115
2017-02-14T14:12:23.717Z,110
2017-02-14T14:13:24.060Z,110
2017-02-14T14:14:24.170Z,110
2017-02-14T14:15:23.663Z,110